CSN6060 VDPP-ZGGG
Flight info
| Callsign | CSN6060 |
|---|---|
| Flight time | N/A |
| Altitude | 41000 |
| Route | SEYHA2 VIBUN N639 VILAO/K0891F410 A202 ASSAD/K0891S1250 A202 AGPOR DCT UDUTI DCT GYA GYA8 |
| Aircraft | A359/H-SDE2E3GHIJ3J4J5LM1ORWXY/LB1D1 |
Departure
| Time | 2026-05-06 14:17 |
|---|---|
| Airport | Phnom Penh International Airport (VDPP) |
Arrival
| Time | N/A |
|---|---|
| Airport | Guangzhou Baiyun International Airport (ZGGG) |
| Time | Latitude | Longitude | Altitude | Speed | Heading |
|---|---|---|---|---|---|
| 2026-05-06 13:40 | 11.55175 | 104.84508 | 68 ft | 0 kts | 331° |
| 2026-05-06 14:07 | 11.55170 | 104.84511 | 58 ft | 2 kts | 331° |
| 2026-05-06 14:08 | 11.55152 | 104.84521 | 58 ft | 3 kts | 331° |
| 2026-05-06 14:08 | 11.55134 | 104.84531 | 68 ft | 3 kts | 331° |
| 2026-05-06 14:08 | 11.55116 | 104.84541 | 58 ft | 3 kts | 331° |
| 2026-05-06 14:08 | 11.55099 | 104.84551 | 68 ft | 3 kts | 331° |
| 2026-05-06 14:09 | 11.55081 | 104.84561 | 58 ft | 3 kts | 331° |
| 2026-05-06 14:09 | 11.55063 | 104.84571 | 68 ft | 3 kts | 336° |
| 2026-05-06 14:09 | 11.55055 | 104.84574 | 68 ft | 3 kts | 19° |
| 2026-05-06 14:09 | 11.55043 | 104.84566 | 58 ft | 2 kts | 45° |
| 2026-05-06 14:10 | 11.55029 | 104.84553 | 58 ft | 3 kts | 45° |
| 2026-05-06 14:10 | 11.55021 | 104.84544 | 68 ft | 0 kts | 45° |
| 2026-05-06 14:13 | 11.55030 | 104.84553 | 68 ft | 4 kts | 45° |
| 2026-05-06 14:13 | 11.55059 | 104.84579 | 59 ft | 7 kts | 31° |
| 2026-05-06 14:14 | 11.55125 | 104.84595 | 62 ft | 12 kts | 19° |
| 2026-05-06 14:14 | 11.55196 | 104.84654 | 60 ft | 14 kts | 46° |
| 2026-05-06 14:14 | 11.55238 | 104.84742 | 59 ft | 13 kts | 108° |
| 2026-05-06 14:14 | 11.55176 | 104.84814 | 58 ft | 14 kts | 136° |
| 2026-05-06 14:15 | 11.55126 | 104.84894 | 60 ft | 13 kts | 84° |
| 2026-05-06 14:15 | 11.55181 | 104.84964 | 62 ft | 14 kts | 46° |
| 2026-05-06 14:15 | 11.55254 | 104.85040 | 64 ft | 16 kts | 45° |
| 2026-05-06 14:15 | 11.55356 | 104.85147 | 60 ft | 25 kts | 46° |
| 2026-05-06 14:16 | 11.55479 | 104.85274 | 58 ft | 26 kts | 45° |
| 2026-05-06 14:16 | 11.55546 | 104.85375 | 66 ft | 8 kts | 66° |
| 2026-05-06 14:16 | 11.55579 | 104.85388 | 61 ft | 3 kts | 321° |
| 2026-05-06 14:16 | 11.55559 | 104.85358 | 60 ft | 11 kts | 220° |
| 2026-05-06 14:17 | 11.55434 | 104.85223 | 58 ft | 56 kts | 225° |
| 2026-05-06 14:17 | 11.54993 | 104.84768 | 61 ft | 123 kts | 225° |
| 2026-05-06 14:17 | 11.54258 | 104.84002 | 135 ft | 172 kts | 224° |
| 2026-05-06 14:17 | 11.53428 | 104.83170 | 912 ft | 165 kts | 227° |
| 2026-05-06 14:18 | 11.52969 | 104.82112 | 1636 ft | 170 kts | 260° |
| 2026-05-06 14:18 | 11.53044 | 104.80804 | 1895 ft | 199 kts | 282° |
| 2026-05-06 14:18 | 11.53761 | 104.79514 | 2127 ft | 225 kts | 320° |
| 2026-05-06 14:18 | 11.55080 | 104.78550 | 2449 ft | 249 kts | 328° |
| 2026-05-06 14:19 | 11.56631 | 104.77651 | 2970 ft | 262 kts | 333° |
| 2026-05-06 14:19 | 11.58291 | 104.76846 | 3661 ft | 267 kts | 338° |
| 2026-05-06 14:19 | 11.60038 | 104.76159 | 4393 ft | 272 kts | 343° |
| 2026-05-06 14:19 | 11.61859 | 104.75619 | 5184 ft | 273 kts | 347° |
| 2026-05-06 14:20 | 11.63725 | 104.75247 | 6003 ft | 274 kts | 353° |
| 2026-05-06 14:20 | 11.65627 | 104.75078 | 6740 ft | 276 kts | 359° |
| 2026-05-06 14:20 | 11.67558 | 104.74903 | 7501 ft | 280 kts | 353° |
| 2026-05-06 14:20 | 11.69499 | 104.74585 | 8253 ft | 285 kts | 353° |
| 2026-05-06 14:21 | 11.71490 | 104.74515 | 9018 ft | 288 kts | 7° |
| 2026-05-06 14:21 | 11.73419 | 104.75038 | 9802 ft | 289 kts | 27° |
| 2026-05-06 14:21 | 11.75136 | 104.76150 | 10312 ft | 301 kts | 37° |
| 2026-05-06 14:21 | 11.76865 | 104.77480 | 10632 ft | 320 kts | 38° |
| 2026-05-06 14:22 | 11.78692 | 104.78887 | 10964 ft | 337 kts | 38° |
| 2026-05-06 14:22 | 11.80597 | 104.80331 | 11503 ft | 344 kts | 37° |
| 2026-05-06 14:22 | 11.82543 | 104.81788 | 12124 ft | 349 kts | 37° |
| 2026-05-06 14:22 | 11.84497 | 104.83240 | 12774 ft | 353 kts | 37° |
| 2026-05-06 14:23 | 11.86497 | 104.84723 | 13432 ft | 357 kts | 37° |
| 2026-05-06 14:23 | 11.88527 | 104.86225 | 14011 ft | 362 kts | 37° |
| 2026-05-06 14:23 | 11.90573 | 104.87739 | 14587 ft | 365 kts | 37° |
| 2026-05-06 14:23 | 11.92637 | 104.89270 | 15133 ft | 369 kts | 37° |
| 2026-05-06 14:24 | 11.94732 | 104.90821 | 15668 ft | 373 kts | 37° |
| 2026-05-06 14:24 | 11.96841 | 104.92387 | 16208 ft | 377 kts | 37° |
| 2026-05-06 14:24 | 11.98976 | 104.93966 | 16720 ft | 381 kts | 37° |
| 2026-05-06 14:24 | 12.01137 | 104.95559 | 17247 ft | 385 kts | 36° |
| 2026-05-06 14:25 | 12.03425 | 104.96942 | 17767 ft | 390 kts | 24° |
| 2026-05-06 14:25 | 12.06015 | 104.97803 | 18268 ft | 393 kts | 15° |
| 2026-05-06 14:25 | 12.08679 | 104.98496 | 18716 ft | 397 kts | 14° |
| 2026-05-06 14:25 | 12.11373 | 104.99179 | 19177 ft | 400 kts | 14° |
| 2026-05-06 14:26 | 12.14083 | 104.99870 | 19668 ft | 402 kts | 14° |
| 2026-05-06 14:26 | 12.16804 | 105.00570 | 20143 ft | 405 kts | 15° |
| 2026-05-06 14:26 | 12.19546 | 105.01278 | 20626 ft | 408 kts | 15° |
| 2026-05-06 14:26 | 12.22310 | 105.01995 | 21140 ft | 410 kts | 15° |
| 2026-05-06 14:27 | 12.25086 | 105.02715 | 21626 ft | 413 kts | 15° |
| 2026-05-06 14:27 | 12.27883 | 105.03442 | 22094 ft | 417 kts | 15° |
| 2026-05-06 14:27 | 12.30705 | 105.04181 | 22577 ft | 419 kts | 14° |
| 2026-05-06 14:27 | 12.33549 | 105.04918 | 23049 ft | 422 kts | 15° |
| 2026-05-06 14:28 | 12.36408 | 105.05661 | 23468 ft | 425 kts | 14° |
| 2026-05-06 14:28 | 12.39290 | 105.06409 | 23813 ft | 429 kts | 14° |
| 2026-05-06 14:28 | 12.42187 | 105.07163 | 24187 ft | 432 kts | 14° |
| 2026-05-06 14:28 | 12.45115 | 105.07924 | 24586 ft | 434 kts | 14° |
| 2026-05-06 14:29 | 12.48051 | 105.08689 | 24990 ft | 437 kts | 14° |
| 2026-05-06 14:29 | 12.51014 | 105.09460 | 25408 ft | 440 kts | 14° |
| 2026-05-06 14:29 | 12.53949 | 105.10224 | 25834 ft | 443 kts | 14° |
| 2026-05-06 14:29 | 12.56943 | 105.11005 | 26264 ft | 446 kts | 14° |
| 2026-05-06 14:30 | 12.59959 | 105.11791 | 26714 ft | 449 kts | 14° |
| 2026-05-06 14:30 | 12.62994 | 105.12582 | 27165 ft | 452 kts | 14° |
| 2026-05-06 14:30 | 12.66053 | 105.13370 | 27590 ft | 454 kts | 14° |
| 2026-05-06 14:30 | 12.69133 | 105.14164 | 28013 ft | 458 kts | 14° |
| 2026-05-06 14:31 | 12.72234 | 105.14967 | 28409 ft | 462 kts | 14° |
| 2026-05-06 14:31 | 12.75364 | 105.15780 | 28807 ft | 465 kts | 14° |
| 2026-05-06 14:31 | 12.78513 | 105.16601 | 29217 ft | 468 kts | 14° |
| 2026-05-06 14:31 | 12.81681 | 105.17427 | 29631 ft | 471 kts | 14° |
| 2026-05-06 14:32 | 12.84868 | 105.18259 | 29993 ft | 474 kts | 14° |
| 2026-05-06 14:32 | 12.88072 | 105.19096 | 30324 ft | 477 kts | 14° |
| 2026-05-06 14:32 | 12.91291 | 105.19937 | 30673 ft | 479 kts | 14° |
| 2026-05-06 14:32 | 12.94527 | 105.20783 | 31013 ft | 481 kts | 13° |
| 2026-05-06 14:33 | 12.97778 | 105.21631 | 31352 ft | 483 kts | 13° |
| 2026-05-06 14:33 | 13.01043 | 105.22479 | 31691 ft | 485 kts | 13° |
| 2026-05-06 14:33 | 13.04276 | 105.23328 | 32025 ft | 487 kts | 14° |
| 2026-05-06 14:33 | 13.07574 | 105.24200 | 32261 ft | 492 kts | 14° |
| 2026-05-06 14:34 | 13.10894 | 105.25082 | 32547 ft | 494 kts | 14° |
| 2026-05-06 14:34 | 13.14233 | 105.25965 | 32866 ft | 496 kts | 14° |
| 2026-05-06 14:34 | 13.17582 | 105.26848 | 33157 ft | 498 kts | 14° |
| 2026-05-06 14:34 | 13.20949 | 105.27733 | 33488 ft | 499 kts | 14° |
| 2026-05-06 14:35 | 13.24323 | 105.28618 | 33762 ft | 501 kts | 14° |
| 2026-05-06 14:35 | 13.27707 | 105.29506 | 34081 ft | 500 kts | 14° |
| 2026-05-06 14:35 | 13.31078 | 105.30391 | 34408 ft | 500 kts | 13° |
| 2026-05-06 14:35 | 13.34444 | 105.31274 | 34679 ft | 500 kts | 13° |
| 2026-05-06 14:36 | 13.37821 | 105.32155 | 34960 ft | 500 kts | 13° |
| 2026-05-06 14:36 | 13.41145 | 105.33022 | 35253 ft | 500 kts | 13° |
| 2026-05-06 14:36 | 13.44514 | 105.33903 | 35551 ft | 499 kts | 13° |
| 2026-05-06 14:36 | 13.47876 | 105.34785 | 35856 ft | 498 kts | 13° |
| 2026-05-06 14:37 | 13.51238 | 105.35668 | 36163 ft | 498 kts | 13° |
| 2026-05-06 14:37 | 13.54587 | 105.36548 | 36467 ft | 497 kts | 13° |
| 2026-05-06 14:37 | 13.57939 | 105.37430 | 36753 ft | 496 kts | 13° |
| 2026-05-06 14:37 | 13.61280 | 105.38310 | 37039 ft | 495 kts | 13° |
| 2026-05-06 14:38 | 13.64615 | 105.39189 | 37337 ft | 495 kts | 13° |
| 2026-05-06 14:38 | 13.67947 | 105.40065 | 37649 ft | 493 kts | 13° |
| 2026-05-06 14:38 | 13.71266 | 105.40937 | 37932 ft | 493 kts | 13° |
| 2026-05-06 14:38 | 13.74591 | 105.41812 | 38215 ft | 492 kts | 13° |
| 2026-05-06 14:39 | 13.77907 | 105.42685 | 38440 ft | 492 kts | 13° |
| 2026-05-06 14:39 | 13.81218 | 105.43559 | 38646 ft | 491 kts | 13° |
| 2026-05-06 14:39 | 13.84532 | 105.44436 | 38853 ft | 491 kts | 13° |
| 2026-05-06 14:39 | 13.87832 | 105.45307 | 39056 ft | 490 kts | 13° |
| 2026-05-06 14:40 | 13.91136 | 105.46179 | 39250 ft | 490 kts | 13° |
| 2026-05-06 14:40 | 13.94437 | 105.47050 | 39431 ft | 489 kts | 13° |
| 2026-05-06 14:40 | 13.97734 | 105.47921 | 39613 ft | 489 kts | 13° |
| 2026-05-06 14:40 | 14.01027 | 105.48796 | 39808 ft | 488 kts | 13° |
| 2026-05-06 14:41 | 14.04286 | 105.49667 | 39971 ft | 488 kts | 13° |
| 2026-05-06 14:41 | 14.07569 | 105.50546 | 40136 ft | 488 kts | 14° |
| 2026-05-06 14:41 | 14.10857 | 105.51424 | 40241 ft | 489 kts | 14° |
| 2026-05-06 14:41 | 14.14150 | 105.52299 | 40378 ft | 489 kts | 13° |
| 2026-05-06 14:42 | 14.17475 | 105.53080 | 40539 ft | 488 kts | 11° |
| 2026-05-06 14:42 | 14.20797 | 105.53751 | 40733 ft | 487 kts | 9° |
| 2026-05-06 14:42 | 14.27487 | 105.55016 | 40811 ft | 490 kts | 9° |
| 2026-05-06 14:43 | 14.34198 | 105.56320 | 40809 ft | 491 kts | 10° |
| 2026-05-06 14:43 | 14.40895 | 105.57671 | 40817 ft | 490 kts | 10° |
| 2026-05-06 14:44 | 14.47590 | 105.59039 | 40815 ft | 490 kts | 11° |
| 2026-05-06 14:45 | 14.57574 | 105.61080 | 40815 ft | 489 kts | 11° |
| 2026-05-06 14:45 | 14.64260 | 105.62447 | 40816 ft | 490 kts | 11° |
| 2026-05-06 14:46 | 14.70947 | 105.63815 | 40820 ft | 490 kts | 11° |
| 2026-05-06 14:46 | 14.77638 | 105.65184 | 40813 ft | 491 kts | 11° |
| 2026-05-06 14:47 | 14.84351 | 105.66558 | 40820 ft | 492 kts | 11° |
| 2026-05-06 14:47 | 14.91073 | 105.67934 | 40824 ft | 492 kts | 11° |
| 2026-05-06 14:48 | 14.97757 | 105.69304 | 40824 ft | 492 kts | 11° |
| 2026-05-06 14:48 | 15.04482 | 105.70683 | 40830 ft | 492 kts | 11° |
| 2026-05-06 14:49 | 15.11199 | 105.72062 | 40829 ft | 492 kts | 11° |
| 2026-05-06 14:49 | 15.17911 | 105.73440 | 40827 ft | 491 kts | 11° |
| 2026-05-06 14:50 | 15.24629 | 105.74724 | 40831 ft | 490 kts | 8° |
| 2026-05-06 14:50 | 15.31383 | 105.75738 | 40829 ft | 490 kts | 7° |
| 2026-05-06 14:51 | 15.38142 | 105.76734 | 40835 ft | 490 kts | 8° |
| 2026-05-06 14:51 | 15.44846 | 105.77766 | 40836 ft | 490 kts | 8° |
| 2026-05-06 14:52 | 15.51585 | 105.78828 | 40837 ft | 490 kts | 8° |
| 2026-05-06 14:52 | 15.58321 | 105.79895 | 40838 ft | 489 kts | 8° |
| 2026-05-06 14:53 | 15.65068 | 105.80963 | 40838 ft | 490 kts | 8° |
| 2026-05-06 14:53 | 15.71808 | 105.82029 | 40839 ft | 490 kts | 8° |
| 2026-05-06 14:54 | 15.78549 | 105.83096 | 40843 ft | 490 kts | 8° |
| 2026-05-06 14:54 | 15.85275 | 105.84161 | 40843 ft | 493 kts | 8° |
| 2026-05-06 14:55 | 15.92064 | 105.85237 | 40847 ft | 494 kts | 8° |
| 2026-05-06 14:55 | 15.98865 | 105.86315 | 40848 ft | 494 kts | 8° |
| 2026-05-06 14:56 | 16.05665 | 105.87395 | 40849 ft | 494 kts | 8° |
| 2026-05-06 14:56 | 16.12459 | 105.88474 | 40852 ft | 493 kts | 8° |
| 2026-05-06 14:57 | 16.19233 | 105.89549 | 40855 ft | 492 kts | 8° |
| 2026-05-06 14:57 | 16.25968 | 105.90620 | 40853 ft | 492 kts | 8° |
| 2026-05-06 14:58 | 16.32736 | 105.91697 | 40854 ft | 492 kts | 8° |
| 2026-05-06 14:58 | 16.38374 | 105.92595 | 40852 ft | 492 kts | 8° |
| 2026-05-06 14:59 | 16.45147 | 105.93674 | 40858 ft | 492 kts | 8° |
| 2026-05-06 14:59 | 16.51908 | 105.94752 | 40855 ft | 490 kts | 8° |
| 2026-05-06 15:00 | 16.58648 | 105.95827 | 40861 ft | 490 kts | 8° |
| 2026-05-06 15:00 | 16.65384 | 105.96902 | 40863 ft | 490 kts | 8° |
| 2026-05-06 15:01 | 16.72121 | 105.97979 | 40869 ft | 489 kts | 7° |
| 2026-05-06 15:01 | 16.78858 | 105.99057 | 40867 ft | 490 kts | 8° |
| 2026-05-06 15:02 | 16.85603 | 106.00135 | 40868 ft | 490 kts | 8° |
| 2026-05-06 15:02 | 16.92341 | 106.01215 | 40866 ft | 490 kts | 7° |
| 2026-05-06 15:03 | 16.99092 | 106.02296 | 40873 ft | 490 kts | 7° |
| 2026-05-06 15:03 | 17.05826 | 106.03376 | 40871 ft | 490 kts | 7° |
| 2026-05-06 15:04 | 17.12523 | 106.04450 | 40872 ft | 490 kts | 7° |
| 2026-05-06 15:04 | 17.19266 | 106.05533 | 40870 ft | 489 kts | 7° |
| 2026-05-06 15:05 | 17.26005 | 106.06617 | 40876 ft | 489 kts | 7° |
| 2026-05-06 15:05 | 17.32583 | 106.08471 | 40876 ft | 491 kts | 22° |
| 2026-05-06 15:06 | 17.38300 | 106.12283 | 40872 ft | 493 kts | 42° |
| 2026-05-06 15:06 | 17.42642 | 106.17839 | 40872 ft | 495 kts | 55° |
| 2026-05-06 15:07 | 17.46406 | 106.23912 | 40873 ft | 499 kts | 57° |
| 2026-05-06 15:07 | 17.50107 | 106.30071 | 40863 ft | 500 kts | 57° |
| 2026-05-06 15:08 | 17.53815 | 106.36196 | 40864 ft | 498 kts | 56° |
| 2026-05-06 15:08 | 17.57581 | 106.42318 | 40855 ft | 498 kts | 56° |
| 2026-05-06 15:09 | 17.61341 | 106.48428 | 40843 ft | 499 kts | 57° |
| 2026-05-06 15:09 | 17.65090 | 106.54550 | 40841 ft | 498 kts | 56° |
| 2026-05-06 15:10 | 17.68835 | 106.60669 | 40843 ft | 498 kts | 57° |
| 2026-05-06 15:10 | 17.72548 | 106.66757 | 40836 ft | 498 kts | 56° |
| 2026-05-06 15:11 | 17.76289 | 106.72885 | 40832 ft | 499 kts | 56° |
| 2026-05-06 15:11 | 17.80031 | 106.79029 | 40829 ft | 500 kts | 56° |
| 2026-05-06 15:12 | 17.83768 | 106.85174 | 40829 ft | 500 kts | 56° |
| 2026-05-06 15:12 | 17.87512 | 106.91339 | 40827 ft | 500 kts | 56° |
| 2026-05-06 15:13 | 17.91250 | 106.97497 | 40827 ft | 500 kts | 56° |
| 2026-05-06 15:13 | 17.94982 | 107.03597 | 40827 ft | 500 kts | 56° |
| 2026-05-06 15:14 | 17.98743 | 107.09744 | 40826 ft | 499 kts | 56° |
| 2026-05-06 15:14 | 18.02495 | 107.15893 | 40825 ft | 499 kts | 56° |
| 2026-05-06 15:15 | 18.06235 | 107.22034 | 40829 ft | 499 kts | 56° |
| 2026-05-06 15:15 | 18.09973 | 107.28189 | 40832 ft | 499 kts | 56° |
| 2026-05-06 15:16 | 18.13686 | 107.34306 | 40832 ft | 499 kts | 56° |
| 2026-05-06 15:16 | 18.17424 | 107.40469 | 40830 ft | 499 kts | 56° |
| 2026-05-06 15:17 | 18.21155 | 107.46627 | 40831 ft | 498 kts | 56° |
| 2026-05-06 15:17 | 18.24877 | 107.52776 | 40831 ft | 498 kts | 56° |
| 2026-05-06 15:18 | 18.28595 | 107.58925 | 40832 ft | 498 kts | 56° |
| 2026-05-06 15:18 | 18.32291 | 107.65045 | 40834 ft | 498 kts | 56° |
| 2026-05-06 15:19 | 18.36364 | 107.70919 | 40835 ft | 496 kts | 50° |
| 2026-05-06 15:19 | 18.40744 | 107.76554 | 40833 ft | 496 kts | 49° |
| 2026-05-06 15:20 | 18.45170 | 107.82149 | 40836 ft | 496 kts | 49° |
| 2026-05-06 15:20 | 18.49586 | 107.87738 | 40838 ft | 496 kts | 49° |
| 2026-05-06 15:21 | 18.53989 | 107.93333 | 40840 ft | 496 kts | 49° |
| 2026-05-06 15:21 | 18.58390 | 107.98938 | 40844 ft | 496 kts | 49° |
| 2026-05-06 15:22 | 18.62792 | 108.04549 | 40842 ft | 496 kts | 49° |
| 2026-05-06 15:22 | 18.67162 | 108.10125 | 40841 ft | 496 kts | 49° |
| 2026-05-06 15:23 | 18.71564 | 108.15746 | 40845 ft | 496 kts | 49° |
| 2026-05-06 15:23 | 18.75973 | 108.21380 | 40844 ft | 497 kts | 49° |
| 2026-05-06 15:24 | 18.80343 | 108.26971 | 40841 ft | 497 kts | 49° |
| 2026-05-06 15:24 | 18.84736 | 108.32595 | 40841 ft | 497 kts | 49° |
| 2026-05-06 15:25 | 18.89136 | 108.38233 | 40838 ft | 497 kts | 49° |
| 2026-05-06 15:25 | 18.93528 | 108.43867 | 40843 ft | 497 kts | 49° |
| 2026-05-06 15:26 | 18.97921 | 108.49508 | 40840 ft | 496 kts | 49° |
| 2026-05-06 15:26 | 19.02307 | 108.55144 | 40847 ft | 496 kts | 49° |
| 2026-05-06 15:27 | 19.06695 | 108.60787 | 40842 ft | 496 kts | 49° |
| 2026-05-06 15:27 | 19.11078 | 108.66430 | 40843 ft | 496 kts | 49° |
| 2026-05-06 15:28 | 19.15431 | 108.72039 | 40848 ft | 496 kts | 49° |
| 2026-05-06 15:28 | 19.19817 | 108.77695 | 40850 ft | 497 kts | 49° |
| 2026-05-06 15:29 | 19.24201 | 108.83355 | 40853 ft | 497 kts | 49° |
| 2026-05-06 15:29 | 19.28584 | 108.89021 | 40855 ft | 497 kts | 49° |
| 2026-05-06 15:30 | 19.32973 | 108.94694 | 40856 ft | 498 kts | 49° |
| 2026-05-06 15:30 | 19.37358 | 109.00368 | 40855 ft | 497 kts | 49° |
| 2026-05-06 15:31 | 19.41739 | 109.06042 | 40855 ft | 497 kts | 49° |
| 2026-05-06 15:31 | 19.46118 | 109.11720 | 40857 ft | 498 kts | 49° |
| 2026-05-06 15:32 | 19.52695 | 109.20259 | 40855 ft | 499 kts | 49° |
| 2026-05-06 15:32 | 19.57034 | 109.25949 | 40858 ft | 499 kts | 49° |
| 2026-05-06 15:33 | 19.61389 | 109.31687 | 40858 ft | 499 kts | 49° |
| 2026-05-06 15:33 | 19.65744 | 109.37426 | 40858 ft | 499 kts | 49° |
| 2026-05-06 15:34 | 19.70099 | 109.43165 | 40858 ft | 499 kts | 49° |
| 2026-05-06 15:34 | 19.74454 | 109.48908 | 40858 ft | 500 kts | 49° |
| 2026-05-06 15:35 | 19.78819 | 109.54669 | 40858 ft | 500 kts | 49° |
| 2026-05-06 15:35 | 19.83179 | 109.60430 | 40852 ft | 500 kts | 49° |
| 2026-05-06 15:36 | 19.87509 | 109.66156 | 40858 ft | 500 kts | 49° |
| 2026-05-06 15:36 | 19.91872 | 109.71932 | 40858 ft | 500 kts | 49° |
| 2026-05-06 15:37 | 19.96227 | 109.77703 | 40861 ft | 501 kts | 49° |
| 2026-05-06 15:37 | 20.00579 | 109.83476 | 40863 ft | 501 kts | 49° |
| 2026-05-06 15:38 | 20.04936 | 109.89261 | 40855 ft | 501 kts | 49° |
| 2026-05-06 15:38 | 20.09292 | 109.95050 | 40856 ft | 501 kts | 49° |
| 2026-05-06 15:39 | 20.13647 | 110.00844 | 40864 ft | 501 kts | 49° |
| 2026-05-06 15:39 | 20.17998 | 110.06639 | 40864 ft | 501 kts | 49° |
| 2026-05-06 15:40 | 20.22321 | 110.12401 | 40867 ft | 501 kts | 49° |
| 2026-05-06 15:40 | 20.26666 | 110.18198 | 40868 ft | 501 kts | 49° |
| 2026-05-06 15:41 | 20.31150 | 110.23886 | 40877 ft | 500 kts | 44° |
| 2026-05-06 15:41 | 20.35981 | 110.29236 | 40875 ft | 500 kts | 43° |
| 2026-05-06 15:42 | 20.40827 | 110.34490 | 40879 ft | 500 kts | 43° |
| 2026-05-06 15:42 | 20.45705 | 110.39768 | 40886 ft | 500 kts | 43° |
| 2026-05-06 15:43 | 20.50575 | 110.45054 | 40877 ft | 500 kts | 43° |
| 2026-05-06 15:43 | 20.55454 | 110.50359 | 40882 ft | 499 kts | 42° |
| 2026-05-06 15:44 | 20.60336 | 110.55642 | 40880 ft | 500 kts | 43° |
| 2026-05-06 15:44 | 20.65163 | 110.60917 | 40874 ft | 500 kts | 43° |
| 2026-05-06 15:45 | 20.70016 | 110.66237 | 40887 ft | 500 kts | 43° |
| 2026-05-06 15:45 | 20.74880 | 110.71559 | 40883 ft | 500 kts | 43° |
| 2026-05-06 15:46 | 20.79738 | 110.76873 | 40881 ft | 500 kts | 43° |
| 2026-05-06 15:46 | 20.84597 | 110.82192 | 40880 ft | 500 kts | 43° |
| 2026-05-06 15:47 | 20.88632 | 110.86614 | 40887 ft | 499 kts | 43° |